sensor_id;sensor_type;location;lat;lon;timestamp;P1;durP1;ratioP1;P2;durP2;ratioP2
23384;SDS011;11865;45.394;10.978;2023-06-26T00:02:24;10.70;;;5.40;;
23384;SDS011;11865;45.394;10.978;2023-06-26T00:04:51;10.45;;;4.50;;
23384;SDS011;11865;45.394;10.978;2023-06-26T00:07:22;8.48;;;4.88;;
23384;SDS011;11865;45.394;10.978;2023-06-26T00:09:49;10.48;;;5.07;;
23384;SDS011;11865;45.394;10.978;2023-06-26T00:12:17;12.50;;;4.32;;
23384;SDS011;11865;45.394;10.978;2023-06-26T00:14:44;8.10;;;5.13;;
23384;SDS011;11865;45.394;10.978;2023-06-26T00:17:12;7.40;;;5.28;;
23384;SDS011;11865;45.394;10.978;2023-06-26T00:19:39;9.52;;;5.00;;
23384;SDS011;11865;45.394;10.978;2023-06-26T00:22:10;6.07;;;4.85;;
23384;SDS011;11865;45.394;10.978;2023-06-26T00:24:38;10.27;;;4.80;;
23384;SDS011;11865;45.394;10.978;2023-06-26T00:27:06;6.97;;;4.60;;
23384;SDS011;11865;45.394;10.978;2023-06-26T00:29:33;12.35;;;5.07;;
23384;SDS011;11865;45.394;10.978;2023-06-26T00:32:02;6.38;;;4.30;;
23384;SDS011;11865;45.394;10.978;2023-06-26T00:34:29;7.03;;;5.15;;
23384;SDS011;11865;45.394;10.978;2023-06-26T00:36:57;7.85;;;4.38;;
23384;SDS011;11865;45.394;10.978;2023-06-26T00:39:24;6.35;;;4.78;;
23384;SDS011;11865;45.394;10.978;2023-06-26T00:41:52;5.78;;;4.57;;
23384;SDS011;11865;45.394;10.978;2023-06-26T00:44:23;9.50;;;4.65;;
23384;SDS011;11865;45.394;10.978;2023-06-26T00:46:52;12.10;;;5.20;;
23384;SDS011;11865;45.394;10.978;2023-06-26T00:49:20;6.03;;;4.72;;
23384;SDS011;11865;45.394;10.978;2023-06-26T00:51:48;6.60;;;4.72;;
23384;SDS011;11865;45.394;10.978;2023-06-26T00:54:16;8.35;;;5.25;;
23384;SDS011;11865;45.394;10.978;2023-06-26T00:56:49;6.63;;;4.90;;
23384;SDS011;11865;45.394;10.978;2023-06-26T00:59:16;8.10;;;5.03;;
23384;SDS011;11865;45.394;10.978;2023-06-26T01:01:44;7.25;;;4.75;;
23384;SDS011;11865;45.394;10.978;2023-06-26T01:04:11;8.35;;;5.72;;
23384;SDS011;11865;45.394;10.978;2023-06-26T01:06:48;8.30;;;4.80;;
23384;SDS011;11865;45.394;10.978;2023-06-26T01:09:19;9.07;;;5.10;;
23384;SDS011;11865;45.394;10.978;2023-06-26T01:11:49;9.68;;;5.18;;
23384;SDS011;11865;45.394;10.978;2023-06-26T01:14:17;6.20;;;4.53;;
23384;SDS011;11865;45.394;10.978;2023-06-26T01:16:45;8.40;;;4.93;;
23384;SDS011;11865;45.394;10.978;2023-06-26T01:19:19;9.88;;;5.35;;
23384;SDS011;11865;45.394;10.978;2023-06-26T01:24:45;9.52;;;4.97;;
23384;SDS011;11865;45.394;10.978;2023-06-26T01:27:28;9.25;;;5.00;;
23384;SDS011;11865;45.394;10.978;2023-06-26T01:30:00;6.75;;;5.22;;
23384;SDS011;11865;45.394;10.978;2023-06-26T01:32:31;8.43;;;5.22;;
23384;SDS011;11865;45.394;10.978;2023-06-26T01:35:00;7.90;;;4.95;;
23384;SDS011;11865;45.394;10.978;2023-06-26T01:37:29;8.02;;;5.13;;
23384;SDS011;11865;45.394;10.978;2023-06-26T01:39:57;7.07;;;5.15;;
23384;SDS011;11865;45.394;10.978;2023-06-26T01:42:24;11.13;;;5.32;;
23384;SDS011;11865;45.394;10.978;2023-06-26T01:44:52;6.95;;;5.00;;
23384;SDS011;11865;45.394;10.978;2023-06-26T01:47:24;9.07;;;5.10;;
23384;SDS011;11865;45.394;10.978;2023-06-26T01:52:28;6.97;;;5.15;;
23384;SDS011;11865;45.394;10.978;2023-06-26T01:58:05;8.80;;;5.55;;
23384;SDS011;11865;45.394;10.978;2023-06-26T02:00:33;6.28;;;5.18;;
23384;SDS011;11865;45.394;10.978;2023-06-26T02:03:03;7.85;;;5.15;;
23384;SDS011;11865;45.394;10.978;2023-06-26T02:05:32;7.82;;;4.85;;
23384;SDS011;11865;45.394;10.978;2023-06-26T02:08:00;7.90;;;5.45;;
23384;SDS011;11865;45.394;10.978;2023-06-26T02:10:31;9.55;;;4.88;;
23384;SDS011;11865;45.394;10.978;2023-06-26T02:12:58;7.53;;;5.15;;
23384;SDS011;11865;45.394;10.978;2023-06-26T02:15:26;11.13;;;5.05;;
23384;SDS011;11865;45.394;10.978;2023-06-26T02:17:54;6.53;;;4.63;;
23384;SDS011;11865;45.394;10.978;2023-06-26T02:20:21;9.55;;;4.82;;
23384;SDS011;11865;45.394;10.978;2023-06-26T02:22:49;5.82;;;4.50;;
23384;SDS011;11865;45.394;10.978;2023-06-26T02:25:17;7.47;;;4.93;;
23384;SDS011;11865;45.394;10.978;2023-06-26T02:27:45;7.93;;;5.70;;
23384;SDS011;11865;45.394;10.978;2023-06-26T02:30:12;7.70;;;5.07;;
23384;SDS011;11865;45.394;10.978;2023-06-26T02:32:40;5.28;;;4.30;;
23384;SDS011;11865;45.394;10.978;2023-06-26T02:35:07;7.25;;;5.40;;
23384;SDS011;11865;45.394;10.978;2023-06-26T02:37:39;9.30;;;5.23;;
23384;SDS011;11865;45.394;10.978;2023-06-26T02:40:06;7.22;;;4.97;;
23384;SDS011;11865;45.394;10.978;2023-06-26T02:42:37;7.05;;;4.90;;
23384;SDS011;11865;45.394;10.978;2023-06-26T02:45:05;6.97;;;5.00;;
23384;SDS011;11865;45.394;10.978;2023-06-26T02:47:33;8.00;;;4.50;;
23384;SDS011;11865;45.394;10.978;2023-06-26T02:50:01;8.50;;;4.82;;
23384;SDS011;11865;45.394;10.978;2023-06-26T02:52:38;6.13;;;4.63;;
23384;SDS011;11865;45.394;10.978;2023-06-26T02:55:06;6.85;;;4.97;;
23384;SDS011;11865;45.394;10.978;2023-06-26T02:57:34;9.77;;;4.82;;
23384;SDS011;11865;45.394;10.978;2023-06-26T03:00:02;9.35;;;4.90;;
23384;SDS011;11865;45.394;10.978;2023-06-26T03:02:31;7.10;;;4.95;;
23384;SDS011;11865;45.394;10.978;2023-06-26T03:04:59;8.70;;;5.03;;
23384;SDS011;11865;45.394;10.978;2023-06-26T03:07:26;10.93;;;5.25;;
23384;SDS011;11865;45.394;10.978;2023-06-26T03:09:54;8.10;;;4.68;;
23384;SDS011;11865;45.394;10.978;2023-06-26T03:12:22;8.88;;;4.40;;
23384;SDS011;11865;45.394;10.978;2023-06-26T03:14:49;9.38;;;4.90;;
23384;SDS011;11865;45.394;10.978;2023-06-26T03:17:17;8.50;;;4.60;;
23384;SDS011;11865;45.394;10.978;2023-06-26T03:19:46;7.88;;;4.32;;
23384;SDS011;11865;45.394;10.978;2023-06-26T03:22:14;10.32;;;4.00;;
23384;SDS011;11865;45.394;10.978;2023-06-26T03:24:43;8.73;;;5.13;;
23384;SDS011;11865;45.394;10.978;2023-06-26T03:27:11;7.35;;;5.50;;
23384;SDS011;11865;45.394;10.978;2023-06-26T03:29:39;5.13;;;4.50;;
23384;SDS011;11865;45.394;10.978;2023-06-26T03:32:07;6.72;;;4.97;;
23384;SDS011;11865;45.394;10.978;2023-06-26T03:34:35;9.50;;;4.63;;
23384;SDS011;11865;45.394;10.978;2023-06-26T03:37:05;7.05;;;4.85;;
23384;SDS011;11865;45.394;10.978;2023-06-26T03:39:33;7.78;;;4.78;;
23384;SDS011;11865;45.394;10.978;2023-06-26T03:42:00;7.38;;;5.25;;
23384;SDS011;11865;45.394;10.978;2023-06-26T03:44:28;8.10;;;5.15;;
23384;SDS011;11865;45.394;10.978;2023-06-26T03:46:56;10.02;;;5.53;;
23384;SDS011;11865;45.394;10.978;2023-06-26T03:49:23;7.22;;;5.05;;
23384;SDS011;11865;45.394;10.978;2023-06-26T03:51:52;7.00;;;4.72;;
23384;SDS011;11865;45.394;10.978;2023-06-26T03:54:21;9.75;;;4.50;;
23384;SDS011;11865;45.394;10.978;2023-06-26T03:56:48;9.02;;;4.93;;
23384;SDS011;11865;45.394;10.978;2023-06-26T03:59:16;11.88;;;4.93;;
23384;SDS011;11865;45.394;10.978;2023-06-26T04:01:44;9.65;;;4.57;;
23384;SDS011;11865;45.394;10.978;2023-06-26T04:04:13;8.80;;;4.40;;
23384;SDS011;11865;45.394;10.978;2023-06-26T04:06:41;6.30;;;4.55;;
23384;SDS011;11865;45.394;10.978;2023-06-26T04:09:08;6.97;;;4.20;;
23384;SDS011;11865;45.394;10.978;2023-06-26T04:11:36;8.57;;;4.60;;
23384;SDS011;11865;45.394;10.978;2023-06-26T04:14:03;6.53;;;4.55;;
23384;SDS011;11865;45.394;10.978;2023-06-26T04:16:31;6.50;;;4.72;;
23384;SDS011;11865;45.394;10.978;2023-06-26T04:18:58;7.88;;;4.97;;
23384;SDS011;11865;45.394;10.978;2023-06-26T04:21:26;7.45;;;4.63;;
23384;SDS011;11865;45.394;10.978;2023-06-26T04:23:53;7.90;;;4.43;;
23384;SDS011;11865;45.394;10.978;2023-06-26T04:26:21;8.52;;;4.75;;
23384;SDS011;11865;45.394;10.978;2023-06-26T04:28:48;5.50;;;4.63;;
23384;SDS011;11865;45.394;10.978;2023-06-26T04:31:16;7.95;;;4.72;;
23384;SDS011;11865;45.394;10.978;2023-06-26T04:33:43;10.23;;;5.10;;
23384;SDS011;11865;45.394;10.978;2023-06-26T04:36:10;9.02;;;4.97;;
23384;SDS011;11865;45.394;10.978;2023-06-26T04:38:38;7.43;;;5.00;;
23384;SDS011;11865;45.394;10.978;2023-06-26T04:41:06;10.27;;;5.30;;
23384;SDS011;11865;45.394;10.978;2023-06-26T04:43:33;6.30;;;4.65;;
23384;SDS011;11865;45.394;10.978;2023-06-26T04:46:05;10.55;;;5.10;;
23384;SDS011;11865;45.394;10.978;2023-06-26T04:48:32;10.75;;;4.95;;
23384;SDS011;11865;45.394;10.978;2023-06-26T04:51:00;7.13;;;4.70;;
23384;SDS011;11865;45.394;10.978;2023-06-26T04:53:27;8.02;;;5.30;;
23384;SDS011;11865;45.394;10.978;2023-06-26T04:55:55;12.20;;;5.28;;
23384;SDS011;11865;45.394;10.978;2023-06-26T04:58:23;7.53;;;4.95;;
23384;SDS011;11865;45.394;10.978;2023-06-26T05:00:50;7.53;;;4.53;;
23384;SDS011;11865;45.394;10.978;2023-06-26T05:03:18;7.88;;;4.93;;
23384;SDS011;11865;45.394;10.978;2023-06-26T05:05:46;7.28;;;4.25;;
23384;SDS011;11865;45.394;10.978;2023-06-26T05:08:17;11.57;;;4.82;;
23384;SDS011;11865;45.394;10.978;2023-06-26T05:10:45;7.60;;;4.53;;
23384;SDS011;11865;45.394;10.978;2023-06-26T05:13:13;9.60;;;4.47;;
23384;SDS011;11865;45.394;10.978;2023-06-26T05:15:44;6.38;;;4.88;;
23384;SDS011;11865;45.394;10.978;2023-06-26T05:18:12;6.60;;;4.22;;
23384;SDS011;11865;45.394;10.978;2023-06-26T05:20:40;8.35;;;4.53;;
23384;SDS011;11865;45.394;10.978;2023-06-26T05:23:08;8.90;;;4.57;;
23384;SDS011;11865;45.394;10.978;2023-06-26T05:25:40;6.85;;;4.20;;
23384;SDS011;11865;45.394;10.978;2023-06-26T05:28:08;7.85;;;4.35;;
23384;SDS011;11865;45.394;10.978;2023-06-26T05:30:37;6.93;;;4.85;;
23384;SDS011;11865;45.394;10.978;2023-06-26T05:33:05;7.65;;;4.22;;
23384;SDS011;11865;45.394;10.978;2023-06-26T05:35:35;8.75;;;4.38;;
23384;SDS011;11865;45.394;10.978;2023-06-26T05:38:03;10.45;;;4.57;;
23384;SDS011;11865;45.394;10.978;2023-06-26T05:40:31;18.63;;;4.88;;
23384;SDS011;11865;45.394;10.978;2023-06-26T05:43:01;22.88;;;5.13;;
23384;SDS011;11865;45.394;10.978;2023-06-26T05:45:29;23.33;;;6.18;;
23384;SDS011;11865;45.394;10.978;2023-06-26T05:47:56;58.00;;;8.05;;
23384;SDS011;11865;45.394;10.978;2023-06-26T05:50:24;38.85;;;6.18;;
23384;SDS011;11865;45.394;10.978;2023-06-26T05:52:52;26.27;;;5.30;;
23384;SDS011;11865;45.394;10.978;2023-06-26T05:55:20;17.98;;;5.10;;
23384;SDS011;11865;45.394;10.978;2023-06-26T05:57:48;21.60;;;5.07;;
23384;SDS011;11865;45.394;10.978;2023-06-26T06:00:17;26.63;;;5.22;;
23384;SDS011;11865;45.394;10.978;2023-06-26T06:02:45;18.02;;;4.78;;
23384;SDS011;11865;45.394;10.978;2023-06-26T06:05:13;13.57;;;4.40;;
23384;SDS011;11865;45.394;10.978;2023-06-26T06:07:40;14.70;;;6.05;;
23384;SDS011;11865;45.394;10.978;2023-06-26T06:10:08;16.48;;;4.93;;
23384;SDS011;11865;45.394;10.978;2023-06-26T06:12:36;23.45;;;5.18;;
23384;SDS011;11865;45.394;10.978;2023-06-26T06:15:03;11.52;;;5.35;;
23384;SDS011;11865;45.394;10.978;2023-06-26T06:17:32;15.13;;;4.95;;
23384;SDS011;11865;45.394;10.978;2023-06-26T06:19:59;16.20;;;4.78;;
23384;SDS011;11865;45.394;10.978;2023-06-26T06:22:27;9.63;;;4.60;;
23384;SDS011;11865;45.394;10.978;2023-06-26T06:24:55;16.42;;;4.85;;
23384;SDS011;11865;45.394;10.978;2023-06-26T06:27:31;25.33;;;6.15;;
23384;SDS011;11865;45.394;10.978;2023-06-26T06:29:59;14.90;;;4.72;;
23384;SDS011;11865;45.394;10.978;2023-06-26T06:32:26;11.68;;;4.70;;
23384;SDS011;11865;45.394;10.978;2023-06-26T06:34:54;11.55;;;4.82;;
23384;SDS011;11865;45.394;10.978;2023-06-26T06:37:21;10.93;;;5.03;;
23384;SDS011;11865;45.394;10.978;2023-06-26T06:39:49;9.63;;;5.18;;
23384;SDS011;11865;45.394;10.978;2023-06-26T06:42:16;15.20;;;5.00;;
23384;SDS011;11865;45.394;10.978;2023-06-26T06:44:44;15.35;;;5.00;;
23384;SDS011;11865;45.394;10.978;2023-06-26T06:47:11;8.57;;;4.90;;
23384;SDS011;11865;45.394;10.978;2023-06-26T06:49:39;13.90;;;5.20;;
23384;SDS011;11865;45.394;10.978;2023-06-26T06:52:06;11.98;;;4.95;;
23384;SDS011;11865;45.394;10.978;2023-06-26T06:54:50;14.48;;;5.40;;
23384;SDS011;11865;45.394;10.978;2023-06-26T06:57:20;10.35;;;4.50;;
23384;SDS011;11865;45.394;10.978;2023-06-26T06:59:48;9.07;;;5.25;;
23384;SDS011;11865;45.394;10.978;2023-06-26T07:02:19;8.35;;;5.38;;
23384;SDS011;11865;45.394;10.978;2023-06-26T07:04:46;11.45;;;5.43;;
23384;SDS011;11865;45.394;10.978;2023-06-26T07:07:17;6.70;;;4.97;;
23384;SDS011;11865;45.394;10.978;2023-06-26T07:09:45;8.25;;;5.43;;
23384;SDS011;11865;45.394;10.978;2023-06-26T07:12:13;8.68;;;6.20;;
23384;SDS011;11865;45.394;10.978;2023-06-26T07:14:40;12.13;;;5.80;;
23384;SDS011;11865;45.394;10.978;2023-06-26T07:17:08;11.63;;;5.05;;
23384;SDS011;11865;45.394;10.978;2023-06-26T07:19:35;10.95;;;5.30;;
23384;SDS011;11865;45.394;10.978;2023-06-26T07:22:03;9.43;;;5.50;;
23384;SDS011;11865;45.394;10.978;2023-06-26T07:24:31;8.57;;;4.53;;
23384;SDS011;11865;45.394;10.978;2023-06-26T07:26:59;11.52;;;4.85;;
23384;SDS011;11865;45.394;10.978;2023-06-26T07:29:27;10.30;;;4.95;;
23384;SDS011;11865;45.394;10.978;2023-06-26T07:31:55;8.13;;;5.07;;
23384;SDS011;11865;45.394;10.978;2023-06-26T07:34:22;8.52;;;5.00;;
23384;SDS011;11865;45.394;10.978;2023-06-26T07:36:50;9.85;;;5.10;;
23384;SDS011;11865;45.394;10.978;2023-06-26T07:39:17;9.85;;;5.28;;
23384;SDS011;11865;45.394;10.978;2023-06-26T07:41:49;9.45;;;4.75;;
23384;SDS011;11865;45.394;10.978;2023-06-26T07:44:17;9.48;;;4.70;;
23384;SDS011;11865;45.394;10.978;2023-06-26T07:46:44;7.07;;;4.20;;
23384;SDS011;11865;45.394;10.978;2023-06-26T07:49:12;7.90;;;4.05;;
23384;SDS011;11865;45.394;10.978;2023-06-26T07:51:40;10.73;;;4.93;;
23384;SDS011;11865;45.394;10.978;2023-06-26T07:54:07;6.07;;;4.28;;
23384;SDS011;11865;45.394;10.978;2023-06-26T07:56:35;6.72;;;4.50;;
23384;SDS011;11865;45.394;10.978;2023-06-26T07:59:22;10.18;;;5.15;;
23384;SDS011;11865;45.394;10.978;2023-06-26T08:01:51;9.05;;;4.75;;
23384;SDS011;11865;45.394;10.978;2023-06-26T08:04:20;10.38;;;4.97;;
23384;SDS011;11865;45.394;10.978;2023-06-26T08:06:50;7.22;;;4.70;;
23384;SDS011;11865;45.394;10.978;2023-06-26T08:09:19;19.90;;;6.30;;
23384;SDS011;11865;45.394;10.978;2023-06-26T08:11:47;15.63;;;4.97;;
23384;SDS011;11865;45.394;10.978;2023-06-26T08:14:15;7.82;;;4.45;;
23384;SDS011;11865;45.394;10.978;2023-06-26T08:16:43;5.57;;;3.83;;
23384;SDS011;11865;45.394;10.978;2023-06-26T08:19:11;9.15;;;4.25;;
23384;SDS011;11865;45.394;10.978;2023-06-26T08:21:40;5.30;;;3.60;;
23384;SDS011;11865;45.394;10.978;2023-06-26T08:24:08;5.78;;;4.15;;
23384;SDS011;11865;45.394;10.978;2023-06-26T08:26:35;5.93;;;4.20;;
23384;SDS011;11865;45.394;10.978;2023-06-26T08:29:04;7.03;;;3.90;;
23384;SDS011;11865;45.394;10.978;2023-06-26T08:31:38;8.30;;;4.55;;
23384;SDS011;11865;45.394;10.978;2023-06-26T08:34:07;8.80;;;4.10;;
23384;SDS011;11865;45.394;10.978;2023-06-26T08:36:35;6.90;;;4.03;;
23384;SDS011;11865;45.394;10.978;2023-06-26T08:39:02;9.05;;;5.15;;
23384;SDS011;11865;45.394;10.978;2023-06-26T08:41:31;8.80;;;4.85;;
23384;SDS011;11865;45.394;10.978;2023-06-26T08:43:59;10.43;;;4.32;;
23384;SDS011;11865;45.394;10.978;2023-06-26T08:46:28;8.15;;;4.65;;
23384;SDS011;11865;45.394;10.978;2023-06-26T08:48:56;9.00;;;4.30;;
23384;SDS011;11865;45.394;10.978;2023-06-26T08:53:56;14.43;;;4.93;;
23384;SDS011;11865;45.394;10.978;2023-06-26T08:56:28;8.90;;;4.93;;
23384;SDS011;11865;45.394;10.978;2023-06-26T08:59:02;11.77;;;4.95;;
23384;SDS011;11865;45.394;10.978;2023-06-26T09:01:31;15.32;;;5.53;;
23384;SDS011;11865;45.394;10.978;2023-06-26T09:03:59;8.07;;;5.20;;
23384;SDS011;11865;45.394;10.978;2023-06-26T09:06:26;8.23;;;4.70;;
23384;SDS011;11865;45.394;10.978;2023-06-26T09:08:54;8.02;;;4.90;;
23384;SDS011;11865;45.394;10.978;2023-06-26T09:11:22;6.78;;;4.40;;
23384;SDS011;11865;45.394;10.978;2023-06-26T09:13:49;7.90;;;4.88;;
23384;SDS011;11865;45.394;10.978;2023-06-26T09:16:18;9.30;;;4.80;;
23384;SDS011;11865;45.394;10.978;2023-06-26T09:18:53;8.02;;;4.65;;
23384;SDS011;11865;45.394;10.978;2023-06-26T09:21:22;11.60;;;6.18;;
23384;SDS011;11865;45.394;10.978;2023-06-26T09:23:51;7.70;;;5.00;;
23384;SDS011;11865;45.394;10.978;2023-06-26T09:26:21;11.07;;;5.00;;
23384;SDS011;11865;45.394;10.978;2023-06-26T09:28:49;9.63;;;5.03;;
23384;SDS011;11865;45.394;10.978;2023-06-26T09:31:17;8.60;;;4.60;;
23384;SDS011;11865;45.394;10.978;2023-06-26T09:34:06;12.55;;;5.20;;
23384;SDS011;11865;45.394;10.978;2023-06-26T09:36:34;16.88;;;5.53;;
23384;SDS011;11865;45.394;10.978;2023-06-26T09:39:06;8.25;;;5.00;;
23384;SDS011;11865;45.394;10.978;2023-06-26T09:41:42;10.68;;;4.60;;
23384;SDS011;11865;45.394;10.978;2023-06-26T09:44:12;7.97;;;4.72;;
23384;SDS011;11865;45.394;10.978;2023-06-26T09:46:41;11.27;;;4.28;;
23384;SDS011;11865;45.394;10.978;2023-06-26T09:49:11;6.45;;;5.00;;
23384;SDS011;11865;45.394;10.978;2023-06-26T09:51:40;9.07;;;5.30;;
23384;SDS011;11865;45.394;10.978;2023-06-26T09:54:09;6.95;;;5.03;;
23384;SDS011;11865;45.394;10.978;2023-06-26T09:56:37;7.03;;;5.00;;
23384;SDS011;11865;45.394;10.978;2023-06-26T09:59:04;7.15;;;4.55;;
23384;SDS011;11865;45.394;10.978;2023-06-26T10:01:33;6.63;;;4.30;;
23384;SDS011;11865;45.394;10.978;2023-06-26T10:04:01;5.85;;;4.07;;
23384;SDS011;11865;45.394;10.978;2023-06-26T10:06:33;7.40;;;4.10;;
23384;SDS011;11865;45.394;10.978;2023-06-26T10:09:08;7.18;;;4.45;;
23384;SDS011;11865;45.394;10.978;2023-06-26T10:11:39;8.07;;;4.32;;
23384;SDS011;11865;45.394;10.978;2023-06-26T10:14:12;8.27;;;4.72;;
23384;SDS011;11865;45.394;10.978;2023-06-26T10:16:44;8.45;;;5.18;;
23384;SDS011;11865;45.394;10.978;2023-06-26T10:19:15;6.78;;;4.03;;
23384;SDS011;11865;45.394;10.978;2023-06-26T10:21:48;5.88;;;3.70;;
23384;SDS011;11865;45.394;10.978;2023-06-26T10:24:17;8.02;;;4.38;;
23384;SDS011;11865;45.394;10.978;2023-06-26T10:26:46;10.30;;;4.80;;
23384;SDS011;11865;45.394;10.978;2023-06-26T10:29:17;6.65;;;4.32;;
23384;SDS011;11865;45.394;10.978;2023-06-26T10:31:49;6.55;;;4.65;;
23384;SDS011;11865;45.394;10.978;2023-06-26T10:34:19;10.95;;;5.28;;
23384;SDS011;11865;45.394;10.978;2023-06-26T10:36:47;11.52;;;5.03;;
23384;SDS011;11865;45.394;10.978;2023-06-26T10:39:25;8.05;;;4.60;;
23384;SDS011;11865;45.394;10.978;2023-06-26T10:41:55;8.70;;;5.03;;
23384;SDS011;11865;45.394;10.978;2023-06-26T10:44:40;7.07;;;4.90;;
23384;SDS011;11865;45.394;10.978;2023-06-26T10:47:10;7.63;;;4.82;;
23384;SDS011;11865;45.394;10.978;2023-06-26T10:49:40;7.05;;;4.72;;
23384;SDS011;11865;45.394;10.978;2023-06-26T10:52:36;7.05;;;4.78;;
23384;SDS011;11865;45.394;10.978;2023-06-26T10:55:04;6.72;;;4.97;;
23384;SDS011;11865;45.394;10.978;2023-06-26T10:57:35;8.82;;;4.68;;
23384;SDS011;11865;45.394;10.978;2023-06-26T11:00:10;9.80;;;4.90;;
23384;SDS011;11865;45.394;10.978;2023-06-26T11:02:48;7.80;;;5.15;;
23384;SDS011;11865;45.394;10.978;2023-06-26T11:05:23;8.95;;;5.05;;
23384;SDS011;11865;45.394;10.978;2023-06-26T11:10:48;10.30;;;5.05;;
23384;SDS011;11865;45.394;10.978;2023-06-26T11:13:17;12.27;;;6.07;;
23384;SDS011;11865;45.394;10.978;2023-06-26T11:15:46;10.85;;;5.32;;
23384;SDS011;11865;45.394;10.978;2023-06-26T11:18:16;7.88;;;5.05;;
23384;SDS011;11865;45.394;10.978;2023-06-26T11:20:43;5.45;;;4.88;;
23384;SDS011;11865;45.394;10.978;2023-06-26T11:23:11;7.43;;;5.22;;
23384;SDS011;11865;45.394;10.978;2023-06-26T11:25:39;9.25;;;5.00;;
23384;SDS011;11865;45.394;10.978;2023-06-26T11:28:09;10.55;;;5.45;;
23384;SDS011;11865;45.394;10.978;2023-06-26T11:30:37;9.52;;;5.15;;
23384;SDS011;11865;45.394;10.978;2023-06-26T11:33:09;11.90;;;5.47;;
23384;SDS011;11865;45.394;10.978;2023-06-26T11:35:37;9.70;;;5.10;;
23384;SDS011;11865;45.394;10.978;2023-06-26T11:38:05;7.65;;;5.15;;
23384;SDS011;11865;45.394;10.978;2023-06-26T11:40:33;9.10;;;5.07;;
23384;SDS011;11865;45.394;10.978;2023-06-26T11:43:03;6.28;;;4.93;;
23384;SDS011;11865;45.394;10.978;2023-06-26T11:45:31;8.50;;;4.95;;
23384;SDS011;11865;45.394;10.978;2023-06-26T11:47:59;7.95;;;5.43;;
23384;SDS011;11865;45.394;10.978;2023-06-26T11:50:27;7.22;;;5.13;;
23384;SDS011;11865;45.394;10.978;2023-06-26T11:52:58;10.63;;;5.25;;
23384;SDS011;11865;45.394;10.978;2023-06-26T11:55:26;7.47;;;4.50;;
23384;SDS011;11865;45.394;10.978;2023-06-26T11:57:55;6.85;;;4.47;;
23384;SDS011;11865;45.394;10.978;2023-06-26T12:00:23;8.82;;;5.00;;
23384;SDS011;11865;45.394;10.978;2023-06-26T12:02:51;5.30;;;4.78;;
23384;SDS011;11865;45.394;10.978;2023-06-26T12:05:20;9.35;;;4.85;;
23384;SDS011;11865;45.394;10.978;2023-06-26T12:07:47;8.80;;;5.07;;
23384;SDS011;11865;45.394;10.978;2023-06-26T12:10:16;12.25;;;5.05;;
23384;SDS011;11865;45.394;10.978;2023-06-26T12:12:45;6.38;;;4.85;;
23384;SDS011;11865;45.394;10.978;2023-06-26T12:15:14;5.35;;;4.68;;
23384;SDS011;11865;45.394;10.978;2023-06-26T12:17:42;10.18;;;4.68;;
23384;SDS011;11865;45.394;10.978;2023-06-26T12:20:44;7.60;;;4.60;;
23384;SDS011;11865;45.394;10.978;2023-06-26T12:23:13;8.27;;;4.90;;
23384;SDS011;11865;45.394;10.978;2023-06-26T12:25:40;6.95;;;4.90;;
23384;SDS011;11865;45.394;10.978;2023-06-26T12:28:15;6.25;;;4.03;;
23384;SDS011;11865;45.394;10.978;2023-06-26T12:30:47;9.32;;;5.25;;
23384;SDS011;11865;45.394;10.978;2023-06-26T12:33:34;10.60;;;4.63;;
23384;SDS011;11865;45.394;10.978;2023-06-26T12:36:03;9.40;;;4.97;;
23384;SDS011;11865;45.394;10.978;2023-06-26T12:38:34;5.75;;;4.70;;
23384;SDS011;11865;45.394;10.978;2023-06-26T12:43:30;6.72;;;4.57;;
23384;SDS011;11865;45.394;10.978;2023-06-26T12:45:57;9.38;;;4.93;;
23384;SDS011;11865;45.394;10.978;2023-06-26T12:48:41;7.95;;;4.78;;
23384;SDS011;11865;45.394;10.978;2023-06-26T12:51:17;8.65;;;4.88;;
23384;SDS011;11865;45.394;10.978;2023-06-26T12:53:44;10.32;;;4.70;;
23384;SDS011;11865;45.394;10.978;2023-06-26T12:56:12;6.63;;;4.25;;
23384;SDS011;11865;45.394;10.978;2023-06-26T12:58:39;5.03;;;4.53;;
23384;SDS011;11865;45.394;10.978;2023-06-26T13:01:07;5.00;;;4.50;;
23384;SDS011;11865;45.394;10.978;2023-06-26T13:03:42;6.45;;;4.40;;
23384;SDS011;11865;45.394;10.978;2023-06-26T13:06:09;9.32;;;4.35;;
23384;SDS011;11865;45.394;10.978;2023-06-26T13:08:37;6.72;;;4.65;;
23384;SDS011;11865;45.394;10.978;2023-06-26T13:11:04;9.15;;;4.70;;
23384;SDS011;11865;45.394;10.978;2023-06-26T13:13:32;7.85;;;4.85;;
23384;SDS011;11865;45.394;10.978;2023-06-26T13:15:59;8.43;;;5.25;;
23384;SDS011;11865;45.394;10.978;2023-06-26T13:18:27;8.55;;;4.65;;
23384;SDS011;11865;45.394;10.978;2023-06-26T13:20:54;6.85;;;4.53;;
23384;SDS011;11865;45.394;10.978;2023-06-26T13:23:22;6.53;;;5.10;;
23384;SDS011;11865;45.394;10.978;2023-06-26T13:25:50;13.93;;;5.18;;
23384;SDS011;11865;45.394;10.978;2023-06-26T13:28:18;5.30;;;4.50;;
23384;SDS011;11865;45.394;10.978;2023-06-26T13:30:46;8.40;;;5.00;;
23384;SDS011;11865;45.394;10.978;2023-06-26T13:33:13;7.03;;;4.78;;
23384;SDS011;11865;45.394;10.978;2023-06-26T13:35:41;8.23;;;5.18;;
23384;SDS011;11865;45.394;10.978;2023-06-26T13:38:08;6.57;;;4.45;;
23384;SDS011;11865;45.394;10.978;2023-06-26T13:40:36;6.45;;;5.20;;
23384;SDS011;11865;45.394;10.978;2023-06-26T13:43:04;6.63;;;4.57;;
23384;SDS011;11865;45.394;10.978;2023-06-26T13:45:31;5.85;;;4.50;;
23384;SDS011;11865;45.394;10.978;2023-06-26T13:47:59;9.23;;;4.85;;
23384;SDS011;11865;45.394;10.978;2023-06-26T13:50:26;8.50;;;5.20;;
23384;SDS011;11865;45.394;10.978;2023-06-26T13:53:14;7.65;;;4.80;;
23384;SDS011;11865;45.394;10.978;2023-06-26T13:55:42;6.88;;;4.93;;
23384;SDS011;11865;45.394;10.978;2023-06-26T13:58:10;8.20;;;4.88;;
23384;SDS011;11865;45.394;10.978;2023-06-26T14:00:38;9.52;;;4.88;;
23384;SDS011;11865;45.394;10.978;2023-06-26T14:03:06;7.18;;;4.90;;
23384;SDS011;11865;45.394;10.978;2023-06-26T14:05:35;6.70;;;5.03;;
23384;SDS011;11865;45.394;10.978;2023-06-26T14:08:08;5.43;;;4.57;;
23384;SDS011;11865;45.394;10.978;2023-06-26T14:10:36;9.43;;;5.32;;
23384;SDS011;11865;45.394;10.978;2023-06-26T14:13:04;10.43;;;5.15;;
23384;SDS011;11865;45.394;10.978;2023-06-26T14:15:32;11.27;;;5.05;;
23384;SDS011;11865;45.394;10.978;2023-06-26T14:18:00;8.48;;;5.47;;
23384;SDS011;11865;45.394;10.978;2023-06-26T14:20:29;9.82;;;5.10;;
23384;SDS011;11865;45.394;10.978;2023-06-26T14:22:59;11.00;;;5.32;;
23384;SDS011;11865;45.394;10.978;2023-06-26T14:25:27;8.15;;;5.50;;
23384;SDS011;11865;45.394;10.978;2023-06-26T14:27:55;7.82;;;5.60;;
23384;SDS011;11865;45.394;10.978;2023-06-26T14:30:23;10.60;;;5.13;;
23384;SDS011;11865;45.394;10.978;2023-06-26T14:32:51;6.38;;;4.97;;
23384;SDS011;11865;45.394;10.978;2023-06-26T14:35:19;8.15;;;5.20;;
23384;SDS011;11865;45.394;10.978;2023-06-26T14:37:47;8.05;;;5.60;;
23384;SDS011;11865;45.394;10.978;2023-06-26T14:40:15;7.90;;;4.90;;
23384;SDS011;11865;45.394;10.978;2023-06-26T14:42:43;8.45;;;4.95;;
23384;SDS011;11865;45.394;10.978;2023-06-26T14:45:12;8.43;;;5.00;;
23384;SDS011;11865;45.394;10.978;2023-06-26T14:47:40;10.18;;;5.15;;
23384;SDS011;11865;45.394;10.978;2023-06-26T14:50:08;7.30;;;4.55;;
23384;SDS011;11865;45.394;10.978;2023-06-26T14:52:36;7.40;;;5.15;;
23384;SDS011;11865;45.394;10.978;2023-06-26T14:55:04;8.48;;;5.03;;
23384;SDS011;11865;45.394;10.978;2023-06-26T14:57:34;6.53;;;4.93;;
23384;SDS011;11865;45.394;10.978;2023-06-26T15:00:02;9.23;;;5.32;;